sensor_id;sensor_type;location;lat;lon;timestamp;temperature;humidity
21255;DHT22;10785;50.674;17.954;2022-08-01T00:01:28;15.90;99.90
21255;DHT22;10785;50.674;17.954;2022-08-01T00:03:57;15.90;99.90
21255;DHT22;10785;50.674;17.954;2022-08-01T00:06:27;15.80;99.90
21255;DHT22;10785;50.674;17.954;2022-08-01T00:08:55;15.80;99.90
21255;DHT22;10785;50.674;17.954;2022-08-01T00:11:24;15.70;99.90
21255;DHT22;10785;50.674;17.954;2022-08-01T00:13:52;15.70;99.90
21255;DHT22;10785;50.674;17.954;2022-08-01T00:16:21;15.70;99.90
21255;DHT22;10785;50.674;17.954;2022-08-01T00:18:50;15.70;99.90
21255;DHT22;10785;50.674;17.954;2022-08-01T00:21:19;15.70;99.90
21255;DHT22;10785;50.674;17.954;2022-08-01T00:23:48;15.60;99.90
21255;DHT22;10785;50.674;17.954;2022-08-01T00:26:17;15.60;99.90
21255;DHT22;10785;50.674;17.954;2022-08-01T00:28:46;15.60;99.90
21255;DHT22;10785;50.674;17.954;2022-08-01T00:31:14;15.50;99.90
21255;DHT22;10785;50.674;17.954;2022-08-01T00:33:43;15.50;99.90
21255;DHT22;10785;50.674;17.954;2022-08-01T00:36:11;15.40;99.90
21255;DHT22;10785;50.674;17.954;2022-08-01T00:38:40;15.30;99.90
21255;DHT22;10785;50.674;17.954;2022-08-01T00:41:10;15.20;99.90
21255;DHT22;10785;50.674;17.954;2022-08-01T00:43:38;15.20;99.90
21255;DHT22;10785;50.674;17.954;2022-08-01T00:46:07;15.10;99.90
21255;DHT22;10785;50.674;17.954;2022-08-01T00:48:35;15.10;99.90
21255;DHT22;10785;50.674;17.954;2022-08-01T00:51:05;15.10;99.90
21255;DHT22;10785;50.674;17.954;2022-08-01T00:53:34;15.10;99.90
21255;DHT22;10785;50.674;17.954;2022-08-01T00:56:21;15.10;99.90
21255;DHT22;10785;50.674;17.954;2022-08-01T00:58:50;15.10;99.90
21255;DHT22;10785;50.674;17.954;2022-08-01T01:01:20;15.10;99.90
21255;DHT22;10785;50.674;17.954;2022-08-01T01:03:50;15.10;99.90
21255;DHT22;10785;50.674;17.954;2022-08-01T01:06:38;15.00;99.90
21255;DHT22;10785;50.674;17.954;2022-08-01T01:09:21;15.00;99.90
21255;DHT22;10785;50.674;17.954;2022-08-01T01:12:02;15.00;99.90
21255;DHT22;10785;50.674;17.954;2022-08-01T01:14:42;15.00;99.90
21255;DHT22;10785;50.674;17.954;2022-08-01T01:17:16;14.90;99.90
21255;DHT22;10785;50.674;17.954;2022-08-01T01:20:08;14.90;99.90
21255;DHT22;10785;50.674;17.954;2022-08-01T01:22:47;15.00;99.90
21255;DHT22;10785;50.674;17.954;2022-08-01T01:25:31;15.00;99.90
21255;DHT22;10785;50.674;17.954;2022-08-01T01:28:10;14.90;99.90
21255;DHT22;10785;50.674;17.954;2022-08-01T01:30:44;14.90;99.90
21255;DHT22;10785;50.674;17.954;2022-08-01T01:33:14;14.90;99.90
21255;DHT22;10785;50.674;17.954;2022-08-01T01:35:47;14.80;99.90
21255;DHT22;10785;50.674;17.954;2022-08-01T01:38:19;14.70;99.90
21255;DHT22;10785;50.674;17.954;2022-08-01T01:40:50;14.60;99.90
21255;DHT22;10785;50.674;17.954;2022-08-01T01:43:20;14.50;99.90
21255;DHT22;10785;50.674;17.954;2022-08-01T01:46:03;14.40;99.90
21255;DHT22;10785;50.674;17.954;2022-08-01T01:48:32;14.40;99.90
21255;DHT22;10785;50.674;17.954;2022-08-01T01:51:02;14.30;99.90
21255;DHT22;10785;50.674;17.954;2022-08-01T01:53:33;14.20;99.90
21255;DHT22;10785;50.674;17.954;2022-08-01T01:56:03;14.20;99.90
21255;DHT22;10785;50.674;17.954;2022-08-01T01:58:34;14.10;99.90
21255;DHT22;10785;50.674;17.954;2022-08-01T02:01:06;14.10;99.90
21255;DHT22;10785;50.674;17.954;2022-08-01T02:03:42;14.00;99.90
21255;DHT22;10785;50.674;17.954;2022-08-01T02:06:13;13.90;99.90
21255;DHT22;10785;50.674;17.954;2022-08-01T02:08:44;13.90;99.90
21255;DHT22;10785;50.674;17.954;2022-08-01T02:11:13;13.80;99.90
21255;DHT22;10785;50.674;17.954;2022-08-01T02:13:53;13.70;99.90
21255;DHT22;10785;50.674;17.954;2022-08-01T02:16:27;13.70;99.90
21255;DHT22;10785;50.674;17.954;2022-08-01T02:18:56;13.60;99.90
21255;DHT22;10785;50.674;17.954;2022-08-01T02:21:29;13.50;99.90
21255;DHT22;10785;50.674;17.954;2022-08-01T02:24:03;13.50;99.90
21255;DHT22;10785;50.674;17.954;2022-08-01T02:26:39;13.40;99.90
21255;DHT22;10785;50.674;17.954;2022-08-01T02:29:11;13.40;99.90
21255;DHT22;10785;50.674;17.954;2022-08-01T02:31:45;13.40;99.90
21255;DHT22;10785;50.674;17.954;2022-08-01T02:34:17;13.40;99.90
21255;DHT22;10785;50.674;17.954;2022-08-01T02:36:46;13.40;99.90
21255;DHT22;10785;50.674;17.954;2022-08-01T02:39:18;13.40;99.90
21255;DHT22;10785;50.674;17.954;2022-08-01T02:41:50;13.30;99.90
21255;DHT22;10785;50.674;17.954;2022-08-01T02:44:24;13.30;99.90
21255;DHT22;10785;50.674;17.954;2022-08-01T02:46:58;13.30;99.90
21255;DHT22;10785;50.674;17.954;2022-08-01T02:49:31;13.30;99.90
21255;DHT22;10785;50.674;17.954;2022-08-01T02:52:04;13.30;99.90
21255;DHT22;10785;50.674;17.954;2022-08-01T02:54:35;13.30;99.90
21255;DHT22;10785;50.674;17.954;2022-08-01T02:57:06;13.30;99.90
21255;DHT22;10785;50.674;17.954;2022-08-01T02:59:40;13.30;99.90
21255;DHT22;10785;50.674;17.954;2022-08-01T03:02:12;13.30;99.90
21255;DHT22;10785;50.674;17.954;2022-08-01T03:04:43;13.40;99.90
21255;DHT22;10785;50.674;17.954;2022-08-01T03:07:13;13.40;99.90
21255;DHT22;10785;50.674;17.954;2022-08-01T03:09:45;13.40;99.90
21255;DHT22;10785;50.674;17.954;2022-08-01T03:12:16;13.40;99.90
21255;DHT22;10785;50.674;17.954;2022-08-01T03:14:47;13.50;99.90
21255;DHT22;10785;50.674;17.954;2022-08-01T03:17:21;13.50;99.90
21255;DHT22;10785;50.674;17.954;2022-08-01T03:19:51;13.60;99.90
21255;DHT22;10785;50.674;17.954;2022-08-01T03:22:22;13.60;99.90
21255;DHT22;10785;50.674;17.954;2022-08-01T03:24:52;13.60;99.90
21255;DHT22;10785;50.674;17.954;2022-08-01T03:27:23;13.60;99.90
21255;DHT22;10785;50.674;17.954;2022-08-01T03:29:55;13.70;99.90
21255;DHT22;10785;50.674;17.954;2022-08-01T03:32:27;13.70;99.90
21255;DHT22;10785;50.674;17.954;2022-08-01T03:34:56;13.80;99.90
21255;DHT22;10785;50.674;17.954;2022-08-01T03:37:26;13.80;99.90
21255;DHT22;10785;50.674;17.954;2022-08-01T03:40:00;13.80;99.90
21255;DHT22;10785;50.674;17.954;2022-08-01T03:42:32;14.10;99.90
21255;DHT22;10785;50.674;17.954;2022-08-01T03:45:05;14.50;99.90
21255;DHT22;10785;50.674;17.954;2022-08-01T03:47:43;14.90;99.90
21255;DHT22;10785;50.674;17.954;2022-08-01T03:50:14;15.40;99.90
21255;DHT22;10785;50.674;17.954;2022-08-01T03:52:46;15.80;99.90
21255;DHT22;10785;50.674;17.954;2022-08-01T03:55:17;16.30;99.90
21255;DHT22;10785;50.674;17.954;2022-08-01T03:57:47;16.80;99.90
21255;DHT22;10785;50.674;17.954;2022-08-01T04:00:16;17.10;99.90
21255;DHT22;10785;50.674;17.954;2022-08-01T04:02:49;17.60;99.90
21255;DHT22;10785;50.674;17.954;2022-08-01T04:05:19;18.00;99.90
21255;DHT22;10785;50.674;17.954;2022-08-01T04:07:49;18.30;99.90
21255;DHT22;10785;50.674;17.954;2022-08-01T04:10:23;18.70;99.90
21255;DHT22;10785;50.674;17.954;2022-08-01T04:12:52;19.00;99.90
21255;DHT22;10785;50.674;17.954;2022-08-01T04:15:21;19.40;99.90
21255;DHT22;10785;50.674;17.954;2022-08-01T04:17:50;19.80;99.90
21255;DHT22;10785;50.674;17.954;2022-08-01T04:20:21;20.10;99.90
21255;DHT22;10785;50.674;17.954;2022-08-01T04:22:50;20.50;99.90
21255;DHT22;10785;50.674;17.954;2022-08-01T04:25:23;20.90;99.90
21255;DHT22;10785;50.674;17.954;2022-08-01T04:27:54;21.20;99.90
21255;DHT22;10785;50.674;17.954;2022-08-01T04:30:26;21.40;99.90
21255;DHT22;10785;50.674;17.954;2022-08-01T04:33:00;21.60;99.90
21255;DHT22;10785;50.674;17.954;2022-08-01T04:35:29;22.20;98.80
21255;DHT22;10785;50.674;17.954;2022-08-01T04:38:21;22.40;97.30
21255;DHT22;10785;50.674;17.954;2022-08-01T04:40:50;22.20;95.10
21255;DHT22;10785;50.674;17.954;2022-08-01T04:43:20;22.10;98.40
21255;DHT22;10785;50.674;17.954;2022-08-01T04:45:51;22.20;97.10
21255;DHT22;10785;50.674;17.954;2022-08-01T04:48:21;22.80;95.10
21255;DHT22;10785;50.674;17.954;2022-08-01T04:50:52;23.10;90.40
21255;DHT22;10785;50.674;17.954;2022-08-01T04:53:22;23.50;90.10
21255;DHT22;10785;50.674;17.954;2022-08-01T04:55:53;23.40;86.30
21255;DHT22;10785;50.674;17.954;2022-08-01T04:58:22;24.00;74.80
21255;DHT22;10785;50.674;17.954;2022-08-01T05:00:51;24.30;68.50
21255;DHT22;10785;50.674;17.954;2022-08-01T05:03:21;24.50;63.80
21255;DHT22;10785;50.674;17.954;2022-08-01T05:05:49;24.80;57.10
21255;DHT22;10785;50.674;17.954;2022-08-01T05:08:18;24.50;56.30
21255;DHT22;10785;50.674;17.954;2022-08-01T05:10:47;23.70;60.80
21255;DHT22;10785;50.674;17.954;2022-08-01T05:13:16;23.10;75.50
21255;DHT22;10785;50.674;17.954;2022-08-01T05:15:44;22.40;89.50
21255;DHT22;10785;50.674;17.954;2022-08-01T05:18:13;21.80;98.50
21255;DHT22;10785;50.674;17.954;2022-08-01T05:20:43;21.50;99.90
21255;DHT22;10785;50.674;17.954;2022-08-01T05:23:11;21.40;99.90
21255;DHT22;10785;50.674;17.954;2022-08-01T05:26:00;21.00;99.90
21255;DHT22;10785;50.674;17.954;2022-08-01T05:28:32;20.40;99.90
21255;DHT22;10785;50.674;17.954;2022-08-01T05:31:00;20.30;99.90
21255;DHT22;10785;50.674;17.954;2022-08-01T05:33:29;20.10;99.90
21255;DHT22;10785;50.674;17.954;2022-08-01T05:35:59;20.00;99.90
21255;DHT22;10785;50.674;17.954;2022-08-01T05:38:28;20.00;99.90
21255;DHT22;10785;50.674;17.954;2022-08-01T05:40:58;20.00;99.90
21255;DHT22;10785;50.674;17.954;2022-08-01T05:43:27;19.90;99.90
21255;DHT22;10785;50.674;17.954;2022-08-01T05:45:56;19.90;99.90
21255;DHT22;10785;50.674;17.954;2022-08-01T05:48:25;19.90;99.90
21255;DHT22;10785;50.674;17.954;2022-08-01T05:50:54;20.10;99.90
21255;DHT22;10785;50.674;17.954;2022-08-01T05:53:26;20.50;99.90
21255;DHT22;10785;50.674;17.954;2022-08-01T05:55:55;21.70;99.90
21255;DHT22;10785;50.674;17.954;2022-08-01T05:58:23;22.90;99.90
21255;DHT22;10785;50.674;17.954;2022-08-01T06:00:52;22.90;96.20
21255;DHT22;10785;50.674;17.954;2022-08-01T06:03:21;22.90;96.30
21255;DHT22;10785;50.674;17.954;2022-08-01T06:05:51;22.70;96.10
21255;DHT22;10785;50.674;17.954;2022-08-01T06:08:20;22.60;97.30
21255;DHT22;10785;50.674;17.954;2022-08-01T06:10:50;22.40;98.20
21255;DHT22;10785;50.674;17.954;2022-08-01T06:13:18;22.20;99.90
21255;DHT22;10785;50.674;17.954;2022-08-01T06:15:47;22.40;99.80
21255;DHT22;10785;50.674;17.954;2022-08-01T06:18:16;22.70;97.90
21255;DHT22;10785;50.674;17.954;2022-08-01T06:20:46;22.60;97.30
21255;DHT22;10785;50.674;17.954;2022-08-01T06:23:15;22.70;97.90
21255;DHT22;10785;50.674;17.954;2022-08-01T06:26:00;22.80;96.90
21255;DHT22;10785;50.674;17.954;2022-08-01T06:28:29;23.20;95.70
21255;DHT22;10785;50.674;17.954;2022-08-01T06:30:58;23.20;95.70
21255;DHT22;10785;50.674;17.954;2022-08-01T06:33:27;23.20;95.70
21255;DHT22;10785;50.674;17.954;2022-08-01T06:35:56;23.30;95.50
21255;DHT22;10785;50.674;17.954;2022-08-01T06:38:25;23.10;95.30
21255;DHT22;10785;50.674;17.954;2022-08-01T06:40:53;23.00;95.40
21255;DHT22;10785;50.674;17.954;2022-08-01T06:43:23;22.70;98.20
21255;DHT22;10785;50.674;17.954;2022-08-01T06:45:52;22.60;99.00
21255;DHT22;10785;50.674;17.954;2022-08-01T06:48:21;22.40;99.50
21255;DHT22;10785;50.674;17.954;2022-08-01T06:50:50;22.50;99.90
21255;DHT22;10785;50.674;17.954;2022-08-01T06:53:36;22.50;99.90
21255;DHT22;10785;50.674;17.954;2022-08-01T06:56:06;22.00;99.90
21255;DHT22;10785;50.674;17.954;2022-08-01T06:58:37;22.10;99.90
21255;DHT22;10785;50.674;17.954;2022-08-01T07:01:06;21.80;99.90
21255;DHT22;10785;50.674;17.954;2022-08-01T07:03:35;21.70;99.90
21255;DHT22;10785;50.674;17.954;2022-08-01T07:06:22;21.70;99.90
21255;DHT22;10785;50.674;17.954;2022-08-01T07:08:52;21.60;99.90
21255;DHT22;10785;50.674;17.954;2022-08-01T07:11:21;21.50;99.90
21255;DHT22;10785;50.674;17.954;2022-08-01T07:13:52;21.50;99.90
21255;DHT22;10785;50.674;17.954;2022-08-01T07:16:21;21.40;99.90
21255;DHT22;10785;50.674;17.954;2022-08-01T07:18:49;21.40;99.90
21255;DHT22;10785;50.674;17.954;2022-08-01T07:21:18;21.50;99.90
21255;DHT22;10785;50.674;17.954;2022-08-01T07:24:06;21.60;99.90
21255;DHT22;10785;50.674;17.954;2022-08-01T07:26:43;21.70;99.90
21255;DHT22;10785;50.674;17.954;2022-08-01T07:29:23;21.70;99.90
21255;DHT22;10785;50.674;17.954;2022-08-01T07:31:52;21.80;99.90
21255;DHT22;10785;50.674;17.954;2022-08-01T07:34:22;22.00;99.90
21255;DHT22;10785;50.674;17.954;2022-08-01T07:36:51;22.20;99.90
21255;DHT22;10785;50.674;17.954;2022-08-01T07:39:20;22.20;99.90
21255;DHT22;10785;50.674;17.954;2022-08-01T07:41:49;22.10;99.90
21255;DHT22;10785;50.674;17.954;2022-08-01T07:44:35;22.10;99.90
21255;DHT22;10785;50.674;17.954;2022-08-01T07:47:05;22.30;99.90
21255;DHT22;10785;50.674;17.954;2022-08-01T07:49:34;22.40;99.90
21255;DHT22;10785;50.674;17.954;2022-08-01T07:52:08;22.40;99.90
21255;DHT22;10785;50.674;17.954;2022-08-01T07:54:36;22.50;99.90
21255;DHT22;10785;50.674;17.954;2022-08-01T07:57:05;22.60;99.90
21255;DHT22;10785;50.674;17.954;2022-08-01T07:59:35;22.30;99.90
21255;DHT22;10785;50.674;17.954;2022-08-01T08:02:04;22.30;99.90
21255;DHT22;10785;50.674;17.954;2022-08-01T08:04:33;22.40;99.90
21255;DHT22;10785;50.674;17.954;2022-08-01T08:07:02;22.50;99.90
21255;DHT22;10785;50.674;17.954;2022-08-01T08:09:31;22.60;99.90
21255;DHT22;10785;50.674;17.954;2022-08-01T08:12:05;22.50;99.90
21255;DHT22;10785;50.674;17.954;2022-08-01T08:14:36;22.60;99.90
21255;DHT22;10785;50.674;17.954;2022-08-01T08:17:05;22.60;99.90
21255;DHT22;10785;50.674;17.954;2022-08-01T08:19:34;22.80;99.90
21255;DHT22;10785;50.674;17.954;2022-08-01T08:22:06;23.10;99.90
21255;DHT22;10785;50.674;17.954;2022-08-01T08:24:36;23.10;99.90
21255;DHT22;10785;50.674;17.954;2022-08-01T08:27:12;23.40;99.90
21255;DHT22;10785;50.674;17.954;2022-08-01T08:29:42;23.60;99.90
21255;DHT22;10785;50.674;17.954;2022-08-01T08:32:11;23.60;99.90
21255;DHT22;10785;50.674;17.954;2022-08-01T08:34:40;23.80;99.40
21255;DHT22;10785;50.674;17.954;2022-08-01T08:37:09;23.70;99.40
21255;DHT22;10785;50.674;17.954;2022-08-01T08:39:37;23.70;99.70
21255;DHT22;10785;50.674;17.954;2022-08-01T08:42:09;23.60;98.10
21255;DHT22;10785;50.674;17.954;2022-08-01T08:44:39;23.50;99.20
21255;DHT22;10785;50.674;17.954;2022-08-01T08:47:13;23.40;99.00
21255;DHT22;10785;50.674;17.954;2022-08-01T08:49:47;23.30;99.90
21255;DHT22;10785;50.674;17.954;2022-08-01T08:52:17;23.30;99.90
21255;DHT22;10785;50.674;17.954;2022-08-01T08:54:48;23.20;99.90
21255;DHT22;10785;50.674;17.954;2022-08-01T08:57:19;23.20;99.90
21255;DHT22;10785;50.674;17.954;2022-08-01T08:59:48;23.00;99.90
21255;DHT22;10785;50.674;17.954;2022-08-01T09:02:20;22.90;99.90
21255;DHT22;10785;50.674;17.954;2022-08-01T09:04:50;22.80;99.90
21255;DHT22;10785;50.674;17.954;2022-08-01T09:07:18;22.90;99.90
21255;DHT22;10785;50.674;17.954;2022-08-01T09:09:47;22.90;99.90
21255;DHT22;10785;50.674;17.954;2022-08-01T09:12:18;23.00;99.90
21255;DHT22;10785;50.674;17.954;2022-08-01T09:14:50;23.10;99.90
21255;DHT22;10785;50.674;17.954;2022-08-01T09:17:23;23.10;99.90
21255;DHT22;10785;50.674;17.954;2022-08-01T09:19:55;23.00;99.90
21255;DHT22;10785;50.674;17.954;2022-08-01T09:22:27;23.00;99.90
21255;DHT22;10785;50.674;17.954;2022-08-01T09:25:02;23.20;99.90
21255;DHT22;10785;50.674;17.954;2022-08-01T09:27:33;23.60;99.90
21255;DHT22;10785;50.674;17.954;2022-08-01T09:30:10;24.00;99.20
21255;DHT22;10785;50.674;17.954;2022-08-01T09:32:57;24.30;95.80
21255;DHT22;10785;50.674;17.954;2022-08-01T09:35:33;24.60;93.40
21255;DHT22;10785;50.674;17.954;2022-08-01T09:38:15;24.80;93.20
21255;DHT22;10785;50.674;17.954;2022-08-01T09:40:49;25.30;90.70
21255;DHT22;10785;50.674;17.954;2022-08-01T09:43:18;25.30;89.00
21255;DHT22;10785;50.674;17.954;2022-08-01T09:45:47;25.00;84.30
21255;DHT22;10785;50.674;17.954;2022-08-01T09:48:21;24.40;90.20
21255;DHT22;10785;50.674;17.954;2022-08-01T09:50:56;24.20;93.60
21255;DHT22;10785;50.674;17.954;2022-08-01T09:53:45;24.60;93.50
21255;DHT22;10785;50.674;17.954;2022-08-01T09:56:20;24.90;90.30
21255;DHT22;10785;50.674;17.954;2022-08-01T09:58:54;24.80;91.70
21255;DHT22;10785;50.674;17.954;2022-08-01T10:01:40;25.30;90.50
21255;DHT22;10785;50.674;17.954;2022-08-01T10:04:12;25.30;89.70
21255;DHT22;10785;50.674;17.954;2022-08-01T10:06:42;25.50;90.20
21255;DHT22;10785;50.674;17.954;2022-08-01T10:09:12;25.30;89.60
21255;DHT22;10785;50.674;17.954;2022-08-01T10:11:42;25.20;91.30
21255;DHT22;10785;50.674;17.954;2022-08-01T10:14:12;25.50;92.20
21255;DHT22;10785;50.674;17.954;2022-08-01T10:16:45;26.10;90.90
21255;DHT22;10785;50.674;17.954;2022-08-01T10:19:23;26.10;89.70
21255;DHT22;10785;50.674;17.954;2022-08-01T10:21:56;26.50;88.80
21255;DHT22;10785;50.674;17.954;2022-08-01T10:24:28;26.10;88.80
21255;DHT22;10785;50.674;17.954;2022-08-01T10:27:02;25.30;93.30
21255;DHT22;10785;50.674;17.954;2022-08-01T10:29:40;25.40;94.90
21255;DHT22;10785;50.674;17.954;2022-08-01T10:32:32;25.90;93.20
21255;DHT22;10785;50.674;17.954;2022-08-01T10:35:04;26.50;86.10
21255;DHT22;10785;50.674;17.954;2022-08-01T10:37:42;26.60;79.90
21255;DHT22;10785;50.674;17.954;2022-08-01T10:40:19;26.60;75.70
21255;DHT22;10785;50.674;17.954;2022-08-01T10:42:57;26.50;65.20
21255;DHT22;10785;50.674;17.954;2022-08-01T10:45:26;26.30;70.60
21255;DHT22;10785;50.674;17.954;2022-08-01T10:48:02;25.80;71.40
21255;DHT22;10785;50.674;17.954;2022-08-01T10:50:38;26.00;72.60
21255;DHT22;10785;50.674;17.954;2022-08-01T10:53:12;26.00;70.90
21255;DHT22;10785;50.674;17.954;2022-08-01T10:55:57;25.60;74.30
21255;DHT22;10785;50.674;17.954;2022-08-01T10:58:31;25.30;75.30
21255;DHT22;10785;50.674;17.954;2022-08-01T11:01:17;25.40;79.60
21255;DHT22;10785;50.674;17.954;2022-08-01T11:04:07;25.70;77.80
21255;DHT22;10785;50.674;17.954;2022-08-01T11:06:54;26.00;71.20
21255;DHT22;10785;50.674;17.954;2022-08-01T11:09:30;26.40;59.90
21255;DHT22;10785;50.674;17.954;2022-08-01T11:12:08;25.90;53.50
21255;DHT22;10785;50.674;17.954;2022-08-01T11:15:18;26.00;55.50
21255;DHT22;10785;50.674;17.954;2022-08-01T11:18:02;26.90;49.40
21255;DHT22;10785;50.674;17.954;2022-08-01T11:20:32;27.00;45.20
21255;DHT22;10785;50.674;17.954;2022-08-01T11:23:19;26.50;46.10
21255;DHT22;10785;50.674;17.954;2022-08-01T11:26:12;26.10;47.00
21255;DHT22;10785;50.674;17.954;2022-08-01T11:28:45;26.10;49.80
21255;DHT22;10785;50.674;17.954;2022-08-01T11:31:34;26.20;51.90
21255;DHT22;10785;50.674;17.954;2022-08-01T11:34:05;26.40;51.10
21255;DHT22;10785;50.674;17.954;2022-08-01T11:36:34;26.40;51.90
21255;DHT22;10785;50.674;17.954;2022-08-01T11:39:25;26.50;49.80
21255;DHT22;10785;50.674;17.954;2022-08-01T11:42:19;26.20;50.50
21255;DHT22;10785;50.674;17.954;2022-08-01T11:44:49;26.00;52.20
21255;DHT22;10785;50.674;17.954;2022-08-01T11:47:21;26.00;52.80
21255;DHT22;10785;50.674;17.954;2022-08-01T11:50:30;25.80;55.90
21255;DHT22;10785;50.674;17.954;2022-08-01T11:53:00;25.30;62.90
21255;DHT22;10785;50.674;17.954;2022-08-01T11:55:31;25.30;67.70
21255;DHT22;10785;50.674;17.954;2022-08-01T11:58:03;25.40;66.90
21255;DHT22;10785;50.674;17.954;2022-08-01T12:00:32;25.30;63.70
21255;DHT22;10785;50.674;17.954;2022-08-01T12:03:03;25.10;66.90
21255;DHT22;10785;50.674;17.954;2022-08-01T12:05:34;25.10;68.70
21255;DHT22;10785;50.674;17.954;2022-08-01T12:08:09;25.00;70.50
21255;DHT22;10785;50.674;17.954;2022-08-01T12:10:39;25.00;67.50
21255;DHT22;10785;50.674;17.954;2022-08-01T12:13:16;25.00;67.50
21255;DHT22;10785;50.674;17.954;2022-08-01T12:15:46;25.00;68.60
21255;DHT22;10785;50.674;17.954;2022-08-01T12:18:22;25.20;69.20
21255;DHT22;10785;50.674;17.954;2022-08-01T12:20:51;25.50;64.00
21255;DHT22;10785;50.674;17.954;2022-08-01T12:23:30;25.60;63.00
21255;DHT22;10785;50.674;17.954;2022-08-01T12:26:00;25.50;58.70
21255;DHT22;10785;50.674;17.954;2022-08-01T12:28:39;25.50;59.20
21255;DHT22;10785;50.674;17.954;2022-08-01T12:31:07;25.60;61.30
21255;DHT22;10785;50.674;17.954;2022-08-01T12:33:40;25.80;61.80
21255;DHT22;10785;50.674;17.954;2022-08-01T12:36:12;25.90;59.40
21255;DHT22;10785;50.674;17.954;2022-08-01T12:38:41;26.10;58.40
21255;DHT22;10785;50.674;17.954;2022-08-01T12:41:11;26.00;58.70
21255;DHT22;10785;50.674;17.954;2022-08-01T12:43:41;26.30;57.90
21255;DHT22;10785;50.674;17.954;2022-08-01T12:46:11;26.40;55.50
21255;DHT22;10785;50.674;17.954;2022-08-01T12:48:43;26.40;54.00
21255;DHT22;10785;50.674;17.954;2022-08-01T12:51:12;26.70;52.90
21255;DHT22;10785;50.674;17.954;2022-08-01T12:53:41;26.60;52.30
21255;DHT22;10785;50.674;17.954;2022-08-01T12:56:11;26.70;52.80
21255;DHT22;10785;50.674;17.954;2022-08-01T12:58:39;26.40;52.60
21255;DHT22;10785;50.674;17.954;2022-08-01T13:01:11;26.30;53.80
21255;DHT22;10785;50.674;17.954;2022-08-01T13:03:40;26.00;55.80
21255;DHT22;10785;50.674;17.954;2022-08-01T13:06:11;25.80;58.80
21255;DHT22;10785;50.674;17.954;2022-08-01T13:08:42;25.80;57.20
21255;DHT22;10785;50.674;17.954;2022-08-01T13:11:14;25.60;58.50
21255;DHT22;10785;50.674;17.954;2022-08-01T13:13:46;25.30;63.50
21255;DHT22;10785;50.674;17.954;2022-08-01T13:16:17;25.20;67.80
21255;DHT22;10785;50.674;17.954;2022-08-01T13:19:07;25.10;74.10
21255;DHT22;10785;50.674;17.954;2022-08-01T13:21:36;25.10;77.60
21255;DHT22;10785;50.674;17.954;2022-08-01T13:24:26;25.30;79.20
21255;DHT22;10785;50.674;17.954;2022-08-01T13:26:58;25.20;78.80
21255;DHT22;10785;50.674;17.954;2022-08-01T13:29:32;25.30;80.50
21255;DHT22;10785;50.674;17.954;2022-08-01T13:32:12;25.30;81.10
21255;DHT22;10785;50.674;17.954;2022-08-01T13:35:03;25.30;82.30
21255;DHT22;10785;50.674;17.954;2022-08-01T13:37:32;25.20;82.40
21255;DHT22;10785;50.674;17.954;2022-08-01T13:40:04;25.20;85.00
21255;DHT22;10785;50.674;17.954;2022-08-01T13:42:34;25.40;86.60
21255;DHT22;10785;50.674;17.954;2022-08-01T13:45:05;25.60;85.80
21255;DHT22;10785;50.674;17.954;2022-08-01T13:47:41;25.80;87.50
21255;DHT22;10785;50.674;17.954;2022-08-01T13:50:32;25.90;80.70
21255;DHT22;10785;50.674;17.954;2022-08-01T13:53:01;25.90;77.80
21255;DHT22;10785;50.674;17.954;2022-08-01T13:55:30;25.80;79.50
21255;DHT22;10785;50.674;17.954;2022-08-01T13:58:03;26.00;78.70
21255;DHT22;10785;50.674;17.954;2022-08-01T14:00:32;25.80;80.50
21255;DHT22;10785;50.674;17.954;2022-08-01T14:03:00;25.60;82.00
21255;DHT22;10785;50.674;17.954;2022-08-01T14:05:29;25.60;90.60
21255;DHT22;10785;50.674;17.954;2022-08-01T14:07:58;25.40;88.50
21255;DHT22;10785;50.674;17.954;2022-08-01T14:10:27;25.00;98.10
21255;DHT22;10785;50.674;17.954;2022-08-01T14:12:56;24.30;99.90
21255;DHT22;10785;50.674;17.954;2022-08-01T14:15:30;22.80;99.90
21255;DHT22;10785;50.674;17.954;2022-08-01T14:18:06;21.80;99.90
21255;DHT22;10785;50.674;17.954;2022-08-01T14:20:37;21.10;99.90
21255;DHT22;10785;50.674;17.954;2022-08-01T14:23:12;20.60;99.90
21255;DHT22;10785;50.674;17.954;2022-08-01T14:25:41;20.10;99.90
21255;DHT22;10785;50.674;17.954;2022-08-01T14:28:32;19.90;99.90
21255;DHT22;10785;50.674;17.954;2022-08-01T14:31:02;19.70;99.90
21255;DHT22;10785;50.674;17.954;2022-08-01T14:33:33;19.60;99.90
21255;DHT22;10785;50.674;17.954;2022-08-01T14:36:04;19.60;99.90
21255;DHT22;10785;50.674;17.954;2022-08-01T14:38:53;19.60;99.90
21255;DHT22;10785;50.674;17.954;2022-08-01T14:41:26;19.60;99.90
21255;DHT22;10785;50.674;17.954;2022-08-01T14:43:57;19.60;99.90
21255;DHT22;10785;50.674;17.954;2022-08-01T14:46:28;19.80;99.90
21255;DHT22;10785;50.674;17.954;2022-08-01T14:48:59;19.80;99.90
21255;DHT22;10785;50.674;17.954;2022-08-01T14:51:28;20.00;99.90
21255;DHT22;10785;50.674;17.954;2022-08-01T14:54:00;20.20;99.90
21255;DHT22;10785;50.674;17.954;2022-08-01T14:56:30;20.30;99.90
21255;DHT22;10785;50.674;17.954;2022-08-01T14:58:59;20.40;99.90
21255;DHT22;10785;50.674;17.954;2022-08-01T15:01:30;20.60;99.90
21255;DHT22;10785;50.674;17.954;2022-08-01T15:03:59;20.80;99.90
21255;DHT22;10785;50.674;17.954;2022-08-01T15:06:30;21.10;99.90
21255;DHT22;10785;50.674;17.954;2022-08-01T15:09:00;21.30;99.90
21255;DHT22;10785;50.674;17.954;2022-08-01T15:11:34;21.40;99.90
21255;DHT22;10785;50.674;17.954;2022-08-01T15:14:03;21.60;99.90
21255;DHT22;10785;50.674;17.954;2022-08-01T15:39:20;21.50;99.90
21255;DHT22;10785;50.674;17.954;2022-08-01T15:41:49;21.50;99.90
21255;DHT22;10785;50.674;17.954;2022-08-01T15:44:18;21.80;99.90
21255;DHT22;10785;50.674;17.954;2022-08-01T15:46:49;21.90;99.90
21255;DHT22;10785;50.674;17.954;2022-08-01T15:49:18;22.00;99.90
21255;DHT22;10785;50.674;17.954;2022-08-01T15:51:50;22.20;99.90
21255;DHT22;10785;50.674;17.954;2022-08-01T15:54:21;22.30;99.90
21255;DHT22;10785;50.674;17.954;2022-08-01T15:56:50;22.40;99.90
21255;DHT22;10785;50.674;17.954;2022-08-01T15:59:20;22.60;99.90
21255;DHT22;10785;50.674;17.954;2022-08-01T16:01:49;22.70;99.90
21255;DHT22;10785;50.674;17.954;2022-08-01T16:04:19;22.90;99.90
21255;DHT22;10785;50.674;17.954;2022-08-01T16:06:56;23.00;99.90
21255;DHT22;10785;50.674;17.954;2022-08-01T16:09:27;23.20;99.90
21255;DHT22;10785;50.674;17.954;2022-08-01T16:11:56;23.20;99.90